Terminal Aerodrome Forecast
Issued by NWS Boston, MA

Home | Current Version | Previous Version | Text Only | Print | Product List | Glossary On
Versions: 1 2 3 4 5 6 7 8 9 10 11 12 13 14 15 16 17 18 19 20 21 22 23
000
FTUS41 KBOX 011019 AAA
TAFBOS
TAF AMD
KBOS 011019Z 0110/0212 01014KT P6SM OVC100
     FM011300 02016G26KT P6SM OVC045
     FM011400 02017G27KT 3SM -RA BR OVC025
     FM011800 03018G29KT P6SM RA OVC015
     FM011900 02019G30KT 6SM RA OVC010
     FM020100 36022G36KT 2SM -RA OVC008
     FM020300 36022G36KT P6SM OVC008=

USA.gov is the U.S. government's official web portal to all federal, state and local government web resources and services.